sensor_id;sensor_type;location;lat;lon;timestamp;temperature;humidity
16408;DHT22;8313;49.894;8.084;2023-02-28T00:00:11;2.10;99.80
16408;DHT22;8313;49.894;8.084;2023-02-28T00:02:42;2.10;99.80
16408;DHT22;8313;49.894;8.084;2023-02-28T00:05:09;2.10;99.80
16408;DHT22;8313;49.894;8.084;2023-02-28T00:07:35;2.10;99.90
16408;DHT22;8313;49.894;8.084;2023-02-28T00:10:01;2.00;99.90
16408;DHT22;8313;49.894;8.084;2023-02-28T00:12:28;2.00;99.90
16408;DHT22;8313;49.894;8.084;2023-02-28T00:14:53;2.00;99.90
16408;DHT22;8313;49.894;8.084;2023-02-28T00:17:20;2.00;99.90
16408;DHT22;8313;49.894;8.084;2023-02-28T00:19:50;2.00;99.90
16408;DHT22;8313;49.894;8.084;2023-02-28T00:22:18;1.90;99.90
16408;DHT22;8313;49.894;8.084;2023-02-28T00:24:44;2.00;99.90
16408;DHT22;8313;49.894;8.084;2023-02-28T00:27:10;1.90;99.90
16408;DHT22;8313;49.894;8.084;2023-02-28T00:29:37;1.90;99.90
16408;DHT22;8313;49.894;8.084;2023-02-28T00:32:03;1.90;99.90
16408;DHT22;8313;49.894;8.084;2023-02-28T00:34:30;1.90;99.90
16408;DHT22;8313;49.894;8.084;2023-02-28T00:36:55;1.90;99.90
16408;DHT22;8313;49.894;8.084;2023-02-28T00:39:21;1.80;99.90
16408;DHT22;8313;49.894;8.084;2023-02-28T00:41:47;1.80;99.90
16408;DHT22;8313;49.894;8.084;2023-02-28T00:44:13;1.80;99.90
16408;DHT22;8313;49.894;8.084;2023-02-28T00:46:39;1.90;99.90
16408;DHT22;8313;49.894;8.084;2023-02-28T00:49:04;1.80;99.90
16408;DHT22;8313;49.894;8.084;2023-02-28T00:51:30;1.80;99.90
16408;DHT22;8313;49.894;8.084;2023-02-28T00:53:56;1.80;99.90
16408;DHT22;8313;49.894;8.084;2023-02-28T00:56:23;1.90;99.90
16408;DHT22;8313;49.894;8.084;2023-02-28T00:58:48;1.90;99.90
16408;DHT22;8313;49.894;8.084;2023-02-28T01:01:14;2.00;99.90
16408;DHT22;8313;49.894;8.084;2023-02-28T01:03:40;2.00;99.90
16408;DHT22;8313;49.894;8.084;2023-02-28T01:06:06;2.00;99.90
16408;DHT22;8313;49.894;8.084;2023-02-28T01:08:31;1.90;99.90
16408;DHT22;8313;49.894;8.084;2023-02-28T01:10:57;2.00;99.90
16408;DHT22;8313;49.894;8.084;2023-02-28T01:13:23;2.00;99.90
16408;DHT22;8313;49.894;8.084;2023-02-28T01:15:55;2.00;99.90
16408;DHT22;8313;49.894;8.084;2023-02-28T01:18:21;1.90;99.90
16408;DHT22;8313;49.894;8.084;2023-02-28T01:20:48;1.90;99.90
16408;DHT22;8313;49.894;8.084;2023-02-28T01:23:15;1.90;99.90
16408;DHT22;8313;49.894;8.084;2023-02-28T01:25:40;1.90;99.90
16408;DHT22;8313;49.894;8.084;2023-02-28T01:28:06;1.90;99.90
16408;DHT22;8313;49.894;8.084;2023-02-28T01:30:32;1.80;99.90
16408;DHT22;8313;49.894;8.084;2023-02-28T01:32:58;1.80;99.90
16408;DHT22;8313;49.894;8.084;2023-02-28T01:35:24;1.80;99.90
16408;DHT22;8313;49.894;8.084;2023-02-28T01:37:50;1.80;99.90
16408;DHT22;8313;49.894;8.084;2023-02-28T01:40:16;1.90;99.90
16408;DHT22;8313;49.894;8.084;2023-02-28T01:42:41;1.90;99.90
16408;DHT22;8313;49.894;8.084;2023-02-28T01:47:50;1.90;99.90
16408;DHT22;8313;49.894;8.084;2023-02-28T01:50:25;1.90;99.90
16408;DHT22;8313;49.894;8.084;2023-02-28T01:52:54;1.90;99.90
16408;DHT22;8313;49.894;8.084;2023-02-28T01:55:23;1.90;99.90
16408;DHT22;8313;49.894;8.084;2023-02-28T01:57:52;1.80;99.90
16408;DHT22;8313;49.894;8.084;2023-02-28T02:00:23;1.90;99.90
16408;DHT22;8313;49.894;8.084;2023-02-28T02:02:51;1.80;99.90
16408;DHT22;8313;49.894;8.084;2023-02-28T02:05:22;1.80;99.90
16408;DHT22;8313;49.894;8.084;2023-02-28T02:07:51;1.80;99.90
16408;DHT22;8313;49.894;8.084;2023-02-28T02:15:43;1.70;99.90
16408;DHT22;8313;49.894;8.084;2023-02-28T02:18:27;1.70;99.90
16408;DHT22;8313;49.894;8.084;2023-02-28T02:40:19;1.60;99.90
16408;DHT22;8313;49.894;8.084;2023-02-28T02:42:52;1.60;99.90
16408;DHT22;8313;49.894;8.084;2023-02-28T02:45:36;1.60;99.90
16408;DHT22;8313;49.894;8.084;2023-02-28T02:48:06;1.60;99.90
16408;DHT22;8313;49.894;8.084;2023-02-28T02:50:41;1.50;99.90
16408;DHT22;8313;49.894;8.084;2023-02-28T02:53:09;1.50;99.90
16408;DHT22;8313;49.894;8.084;2023-02-28T02:55:40;1.50;99.90
16408;DHT22;8313;49.894;8.084;2023-02-28T02:58:18;1.60;99.90
16408;DHT22;8313;49.894;8.084;2023-02-28T03:00:55;1.50;99.90
16408;DHT22;8313;49.894;8.084;2023-02-28T03:03:23;1.50;99.90
16408;DHT22;8313;49.894;8.084;2023-02-28T03:05:57;1.50;99.90
16408;DHT22;8313;49.894;8.084;2023-02-28T03:08:23;1.40;99.90
16408;DHT22;8313;49.894;8.084;2023-02-28T03:11:00;1.50;99.90
16408;DHT22;8313;49.894;8.084;2023-02-28T03:19:03;1.50;99.90
16408;DHT22;8313;49.894;8.084;2023-02-28T03:30:16;1.40;99.90
16408;DHT22;8313;49.894;8.084;2023-02-28T03:32:54;1.40;99.90
16408;DHT22;8313;49.894;8.084;2023-02-28T03:35:24;1.40;99.90
16408;DHT22;8313;49.894;8.084;2023-02-28T03:38:00;1.30;99.90
16408;DHT22;8313;49.894;8.084;2023-02-28T03:40:30;1.40;99.90
16408;DHT22;8313;49.894;8.084;2023-02-28T03:43:01;1.40;99.90
16408;DHT22;8313;49.894;8.084;2023-02-28T03:45:29;1.40;99.90
16408;DHT22;8313;49.894;8.084;2023-02-28T03:53:46;1.40;99.90
16408;DHT22;8313;49.894;8.084;2023-02-28T03:58:41;1.40;99.90
16408;DHT22;8313;49.894;8.084;2023-02-28T04:01:26;1.40;99.90
16408;DHT22;8313;49.894;8.084;2023-02-28T04:03:53;1.40;99.90
16408;DHT22;8313;49.894;8.084;2023-02-28T04:06:20;1.40;99.90
16408;DHT22;8313;49.894;8.084;2023-02-28T04:08:47;1.40;99.90
16408;DHT22;8313;49.894;8.084;2023-02-28T04:13:51;1.50;99.90
16408;DHT22;8313;49.894;8.084;2023-02-28T04:16:17;1.50;99.90
16408;DHT22;8313;49.894;8.084;2023-02-28T04:18:43;1.40;99.90
16408;DHT22;8313;49.894;8.084;2023-02-28T04:21:09;1.40;99.90
16408;DHT22;8313;49.894;8.084;2023-02-28T04:23:35;1.40;99.90
16408;DHT22;8313;49.894;8.084;2023-02-28T04:26:03;1.30;99.90
16408;DHT22;8313;49.894;8.084;2023-02-28T04:28:29;1.20;99.90
16408;DHT22;8313;49.894;8.084;2023-02-28T04:31:01;1.20;99.90
16408;DHT22;8313;49.894;8.084;2023-02-28T04:33:27;1.30;99.90
16408;DHT22;8313;49.894;8.084;2023-02-28T04:36:07;1.30;99.90
16408;DHT22;8313;49.894;8.084;2023-02-28T04:38:38;1.30;99.90
16408;DHT22;8313;49.894;8.084;2023-02-28T04:41:04;1.30;99.90
16408;DHT22;8313;49.894;8.084;2023-02-28T04:43:31;1.30;99.90
16408;DHT22;8313;49.894;8.084;2023-02-28T04:45:59;1.20;99.90
16408;DHT22;8313;49.894;8.084;2023-02-28T04:48:28;1.20;99.90
16408;DHT22;8313;49.894;8.084;2023-02-28T04:50:55;1.20;99.90
16408;DHT22;8313;49.894;8.084;2023-02-28T04:53:24;1.20;99.90
16408;DHT22;8313;49.894;8.084;2023-02-28T04:55:50;1.20;99.90
16408;DHT22;8313;49.894;8.084;2023-02-28T04:58:16;1.10;99.90
16408;DHT22;8313;49.894;8.084;2023-02-28T05:00:41;1.10;99.90
16408;DHT22;8313;49.894;8.084;2023-02-28T05:03:07;1.10;99.90
16408;DHT22;8313;49.894;8.084;2023-02-28T05:05:33;1.10;99.90
16408;DHT22;8313;49.894;8.084;2023-02-28T05:07:58;1.10;99.90
16408;DHT22;8313;49.894;8.084;2023-02-28T05:10:24;1.10;99.90
16408;DHT22;8313;49.894;8.084;2023-02-28T05:12:50;1.10;99.90
16408;DHT22;8313;49.894;8.084;2023-02-28T05:15:16;1.10;99.90
16408;DHT22;8313;49.894;8.084;2023-02-28T05:17:42;1.10;99.90
16408;DHT22;8313;49.894;8.084;2023-02-28T05:20:09;1.10;99.90
16408;DHT22;8313;49.894;8.084;2023-02-28T05:22:42;1.10;99.90
16408;DHT22;8313;49.894;8.084;2023-02-28T05:25:16;1.10;99.90
16408;DHT22;8313;49.894;8.084;2023-02-28T05:27:42;1.10;99.90
16408;DHT22;8313;49.894;8.084;2023-02-28T05:30:08;1.10;99.90
16408;DHT22;8313;49.894;8.084;2023-02-28T05:32:39;1.10;99.90
16408;DHT22;8313;49.894;8.084;2023-02-28T05:35:09;1.10;99.90
16408;DHT22;8313;49.894;8.084;2023-02-28T05:37:35;1.00;99.90
16408;DHT22;8313;49.894;8.084;2023-02-28T05:40:03;1.00;99.90
16408;DHT22;8313;49.894;8.084;2023-02-28T05:42:31;1.00;99.90
16408;DHT22;8313;49.894;8.084;2023-02-28T05:44:57;0.90;99.90
16408;DHT22;8313;49.894;8.084;2023-02-28T05:47:23;0.90;99.90
16408;DHT22;8313;49.894;8.084;2023-02-28T05:49:48;0.80;99.90
16408;DHT22;8313;49.894;8.084;2023-02-28T05:52:14;0.80;99.90
16408;DHT22;8313;49.894;8.084;2023-02-28T05:54:40;0.80;99.90
16408;DHT22;8313;49.894;8.084;2023-02-28T05:57:06;0.90;99.90
16408;DHT22;8313;49.894;8.084;2023-02-28T05:59:32;0.90;99.90
16408;DHT22;8313;49.894;8.084;2023-02-28T06:01:57;0.90;99.90
16408;DHT22;8313;49.894;8.084;2023-02-28T06:04:23;0.80;99.90
16408;DHT22;8313;49.894;8.084;2023-02-28T06:06:49;0.80;99.90
16408;DHT22;8313;49.894;8.084;2023-02-28T06:09:16;0.70;99.90
16408;DHT22;8313;49.894;8.084;2023-02-28T06:11:42;0.70;99.90
16408;DHT22;8313;49.894;8.084;2023-02-28T06:14:15;0.80;99.90
16408;DHT22;8313;49.894;8.084;2023-02-28T06:16:41;0.80;99.90
16408;DHT22;8313;49.894;8.084;2023-02-28T06:19:07;0.80;99.90
16408;DHT22;8313;49.894;8.084;2023-02-28T06:21:32;0.80;99.90
16408;DHT22;8313;49.894;8.084;2023-02-28T06:23:58;0.80;99.90
16408;DHT22;8313;49.894;8.084;2023-02-28T06:26:25;0.70;99.90
16408;DHT22;8313;49.894;8.084;2023-02-28T06:28:51;0.60;99.90
16408;DHT22;8313;49.894;8.084;2023-02-28T06:31:17;0.60;99.90
16408;DHT22;8313;49.894;8.084;2023-02-28T06:33:44;0.60;99.90
16408;DHT22;8313;49.894;8.084;2023-02-28T06:36:11;0.60;99.90
16408;DHT22;8313;49.894;8.084;2023-02-28T06:38:39;0.50;99.90
16408;DHT22;8313;49.894;8.084;2023-02-28T06:41:05;0.50;99.90
16408;DHT22;8313;49.894;8.084;2023-02-28T06:43:35;0.40;99.90
16408;DHT22;8313;49.894;8.084;2023-02-28T06:46:03;0.40;99.90
16408;DHT22;8313;49.894;8.084;2023-02-28T06:48:30;0.30;99.90
16408;DHT22;8313;49.894;8.084;2023-02-28T06:51:17;0.40;99.90
16408;DHT22;8313;49.894;8.084;2023-02-28T06:53:43;0.40;99.90
16408;DHT22;8313;49.894;8.084;2023-02-28T06:56:11;0.40;99.90
16408;DHT22;8313;49.894;8.084;2023-02-28T06:58:37;0.30;99.90
16408;DHT22;8313;49.894;8.084;2023-02-28T07:01:05;0.30;99.90
16408;DHT22;8313;49.894;8.084;2023-02-28T07:03:31;0.40;99.90
16408;DHT22;8313;49.894;8.084;2023-02-28T07:05:57;0.30;99.90
16408;DHT22;8313;49.894;8.084;2023-02-28T07:08:23;0.20;99.90
16408;DHT22;8313;49.894;8.084;2023-02-28T07:10:56;0.30;99.90
16408;DHT22;8313;49.894;8.084;2023-02-28T07:13:23;0.40;99.90
16408;DHT22;8313;49.894;8.084;2023-02-28T07:18:20;0.30;99.90
16408;DHT22;8313;49.894;8.084;2023-02-28T07:20:46;0.40;99.90
16408;DHT22;8313;49.894;8.084;2023-02-28T07:23:12;0.40;99.90
16408;DHT22;8313;49.894;8.084;2023-02-28T07:25:37;0.50;99.90
16408;DHT22;8313;49.894;8.084;2023-02-28T07:28:03;0.50;99.90
16408;DHT22;8313;49.894;8.084;2023-02-28T07:30:28;0.50;99.90
16408;DHT22;8313;49.894;8.084;2023-02-28T07:32:54;0.50;99.90
16408;DHT22;8313;49.894;8.084;2023-02-28T07:35:22;0.50;99.90
16408;DHT22;8313;49.894;8.084;2023-02-28T07:37:47;0.50;99.90
16408;DHT22;8313;49.894;8.084;2023-02-28T07:40:14;0.60;99.90
16408;DHT22;8313;49.894;8.084;2023-02-28T07:42:40;0.60;99.90
16408;DHT22;8313;49.894;8.084;2023-02-28T07:45:09;0.70;99.90
16408;DHT22;8313;49.894;8.084;2023-02-28T07:47:37;0.70;99.90
16408;DHT22;8313;49.894;8.084;2023-02-28T07:50:05;0.80;99.90
16408;DHT22;8313;49.894;8.084;2023-02-28T07:52:31;0.80;99.90
16408;DHT22;8313;49.894;8.084;2023-02-28T07:54:57;0.80;99.90
16408;DHT22;8313;49.894;8.084;2023-02-28T07:57:23;0.80;99.90
16408;DHT22;8313;49.894;8.084;2023-02-28T07:59:49;0.90;99.90
16408;DHT22;8313;49.894;8.084;2023-02-28T08:02:16;0.90;99.90
16408;DHT22;8313;49.894;8.084;2023-02-28T08:04:42;1.00;99.90
16408;DHT22;8313;49.894;8.084;2023-02-28T08:07:08;1.00;99.90
16408;DHT22;8313;49.894;8.084;2023-02-28T08:09:39;1.10;99.90
16408;DHT22;8313;49.894;8.084;2023-02-28T08:12:05;1.20;99.90
16408;DHT22;8313;49.894;8.084;2023-02-28T08:14:30;1.20;99.90
16408;DHT22;8313;49.894;8.084;2023-02-28T08:16:56;1.20;99.90
16408;DHT22;8313;49.894;8.084;2023-02-28T08:19:22;1.20;99.90
16408;DHT22;8313;49.894;8.084;2023-02-28T08:21:47;1.30;99.90
16408;DHT22;8313;49.894;8.084;2023-02-28T08:24:13;1.30;99.90
16408;DHT22;8313;49.894;8.084;2023-02-28T08:26:38;1.30;99.90
16408;DHT22;8313;49.894;8.084;2023-02-28T08:29:04;1.40;99.90
16408;DHT22;8313;49.894;8.084;2023-02-28T08:31:30;1.50;99.90
16408;DHT22;8313;49.894;8.084;2023-02-28T08:33:55;1.40;99.90
16408;DHT22;8313;49.894;8.084;2023-02-28T08:36:24;1.20;99.90
16408;DHT22;8313;49.894;8.084;2023-02-28T08:38:50;1.30;99.90
16408;DHT22;8313;49.894;8.084;2023-02-28T08:41:16;1.30;99.90
16408;DHT22;8313;49.894;8.084;2023-02-28T08:43:42;1.30;99.90
16408;DHT22;8313;49.894;8.084;2023-02-28T08:46:10;1.30;99.90
16408;DHT22;8313;49.894;8.084;2023-02-28T08:48:36;1.40;99.90
16408;DHT22;8313;49.894;8.084;2023-02-28T08:51:08;1.50;99.90
16408;DHT22;8313;49.894;8.084;2023-02-28T08:53:38;1.50;99.90
16408;DHT22;8313;49.894;8.084;2023-02-28T08:56:12;1.50;99.90
16408;DHT22;8313;49.894;8.084;2023-02-28T08:58:39;1.40;99.90
16408;DHT22;8313;49.894;8.084;2023-02-28T09:03:34;1.50;99.90
16408;DHT22;8313;49.894;8.084;2023-02-28T09:06:00;1.50;99.90
16408;DHT22;8313;49.894;8.084;2023-02-28T09:08:28;1.50;99.90
16408;DHT22;8313;49.894;8.084;2023-02-28T09:10:54;1.50;99.90
16408;DHT22;8313;49.894;8.084;2023-02-28T09:13:23;1.50;99.90
16408;DHT22;8313;49.894;8.084;2023-02-28T09:15:49;1.50;99.90
16408;DHT22;8313;49.894;8.084;2023-02-28T09:18:15;1.60;99.90
16408;DHT22;8313;49.894;8.084;2023-02-28T09:20:42;1.60;99.90
16408;DHT22;8313;49.894;8.084;2023-02-28T09:23:09;1.60;99.90
16408;DHT22;8313;49.894;8.084;2023-02-28T09:25:36;1.70;99.90
16408;DHT22;8313;49.894;8.084;2023-02-28T09:28:02;1.90;99.90
16408;DHT22;8313;49.894;8.084;2023-02-28T09:30:28;2.00;99.90
16408;DHT22;8313;49.894;8.084;2023-02-28T09:32:54;2.00;99.90
16408;DHT22;8313;49.894;8.084;2023-02-28T09:35:22;2.10;99.90
16408;DHT22;8313;49.894;8.084;2023-02-28T09:37:51;2.10;99.90
16408;DHT22;8313;49.894;8.084;2023-02-28T09:40:19;2.20;99.90
16408;DHT22;8313;49.894;8.084;2023-02-28T09:42:47;2.30;99.90
16408;DHT22;8313;49.894;8.084;2023-02-28T09:45:33;2.40;99.90
16408;DHT22;8313;49.894;8.084;2023-02-28T09:48:04;2.30;99.90
16408;DHT22;8313;49.894;8.084;2023-02-28T09:53:04;2.30;99.90
16408;DHT22;8313;49.894;8.084;2023-02-28T09:55:37;2.30;99.90
16408;DHT22;8313;49.894;8.084;2023-02-28T09:58:05;2.50;99.90
16408;DHT22;8313;49.894;8.084;2023-02-28T10:00:37;2.50;99.80
16408;DHT22;8313;49.894;8.084;2023-02-28T10:03:26;2.60;99.50
16408;DHT22;8313;49.894;8.084;2023-02-28T10:06:04;2.60;99.40
16408;DHT22;8313;49.894;8.084;2023-02-28T10:08:49;2.40;99.30
16408;DHT22;8313;49.894;8.084;2023-02-28T10:11:18;2.80;99.30
16408;DHT22;8313;49.894;8.084;2023-02-28T10:16:46;2.70;98.90
16408;DHT22;8313;49.894;8.084;2023-02-28T10:19:20;2.90;99.00
16408;DHT22;8313;49.894;8.084;2023-02-28T10:22:31;3.00;98.80
16408;DHT22;8313;49.894;8.084;2023-02-28T10:24:44;3.30;98.60
16408;DHT22;8313;49.894;8.084;2023-02-28T10:27:19;3.30;98.20
16408;DHT22;8313;49.894;8.084;2023-02-28T10:29:56;3.30;98.50
16408;DHT22;8313;49.894;8.084;2023-02-28T10:32:33;3.40;98.40
16408;DHT22;8313;49.894;8.084;2023-02-28T10:35:17;3.60;98.10
16408;DHT22;8313;49.894;8.084;2023-02-28T10:37:58;3.20;97.90
16408;DHT22;8313;49.894;8.084;2023-02-28T10:40:27;3.50;98.30
16408;DHT22;8313;49.894;8.084;2023-02-28T10:45:38;3.40;97.60
16408;DHT22;8313;49.894;8.084;2023-02-28T10:48:26;3.00;97.70
16408;DHT22;8313;49.894;8.084;2023-02-28T10:50:52;2.90;97.90
16408;DHT22;8313;49.894;8.084;2023-02-28T10:56:05;3.00;98.10
16408;DHT22;8313;49.894;8.084;2023-02-28T11:01:43;3.00;97.90
16408;DHT22;8313;49.894;8.084;2023-02-28T11:04:18;3.00;97.90
16408;DHT22;8313;49.894;8.084;2023-02-28T11:06:45;3.00;98.20
16408;DHT22;8313;49.894;8.084;2023-02-28T11:09:33;3.00;98.10
16408;DHT22;8313;49.894;8.084;2023-02-28T11:12:07;3.10;98.10
16408;DHT22;8313;49.894;8.084;2023-02-28T11:14:40;3.10;97.90
16408;DHT22;8313;49.894;8.084;2023-02-28T11:17:22;3.10;97.70
16408;DHT22;8313;49.894;8.084;2023-02-28T11:19:52;3.00;97.90
16408;DHT22;8313;49.894;8.084;2023-02-28T11:22:21;3.10;97.90
16408;DHT22;8313;49.894;8.084;2023-02-28T11:24:51;3.10;97.80
16408;DHT22;8313;49.894;8.084;2023-02-28T11:29:56;3.20;97.80
16408;DHT22;8313;49.894;8.084;2023-02-28T11:32:24;3.10;97.40
16408;DHT22;8313;49.894;8.084;2023-02-28T11:37:54;3.20;97.90
16408;DHT22;8313;49.894;8.084;2023-02-28T11:45:45;3.50;97.00
16408;DHT22;8313;49.894;8.084;2023-02-28T11:48:17;3.50;97.20
16408;DHT22;8313;49.894;8.084;2023-02-28T11:51:10;3.50;97.30
16408;DHT22;8313;49.894;8.084;2023-02-28T11:56:48;3.40;96.90
16408;DHT22;8313;49.894;8.084;2023-02-28T11:59:36;3.30;97.00
16408;DHT22;8313;49.894;8.084;2023-02-28T12:02:32;3.30;96.60
16408;DHT22;8313;49.894;8.084;2023-02-28T12:21:31;3.80;96.20
16408;DHT22;8313;49.894;8.084;2023-02-28T12:26:49;3.90;96.10
16408;DHT22;8313;49.894;8.084;2023-02-28T12:29:33;3.90;96.50
16408;DHT22;8313;49.894;8.084;2023-02-28T12:32:41;4.10;96.40
16408;DHT22;8313;49.894;8.084;2023-02-28T12:37:44;4.20;96.10
16408;DHT22;8313;49.894;8.084;2023-02-28T12:40:23;4.10;96.30
16408;DHT22;8313;49.894;8.084;2023-02-28T12:42:52;4.10;96.00
16408;DHT22;8313;49.894;8.084;2023-02-28T12:45:26;4.20;96.20
16408;DHT22;8313;49.894;8.084;2023-02-28T12:47:58;4.10;95.80
16408;DHT22;8313;49.894;8.084;2023-02-28T12:50:26;4.00;95.60
16408;DHT22;8313;49.894;8.084;2023-02-28T12:53:18;4.10;96.00
16408;DHT22;8313;49.894;8.084;2023-02-28T12:59:01;4.10;96.00
16408;DHT22;8313;49.894;8.084;2023-02-28T13:02:00;4.20;95.60
16408;DHT22;8313;49.894;8.084;2023-02-28T13:07:57;4.10;95.80
16408;DHT22;8313;49.894;8.084;2023-02-28T13:10:46;4.20;95.70
16408;DHT22;8313;49.894;8.084;2023-02-28T13:13:18;4.20;95.80
16408;DHT22;8313;49.894;8.084;2023-02-28T13:18:34;4.50;95.60
16408;DHT22;8313;49.894;8.084;2023-02-28T13:21:03;4.40;95.70
16408;DHT22;8313;49.894;8.084;2023-02-28T13:23:59;4.60;95.80
16408;DHT22;8313;49.894;8.084;2023-02-28T13:34:38;4.40;95.60
16408;DHT22;8313;49.894;8.084;2023-02-28T13:39:53;4.30;95.50
16408;DHT22;8313;49.894;8.084;2023-02-28T14:06:35;4.50;95.50
16408;DHT22;8313;49.894;8.084;2023-02-28T14:09:16;4.50;95.40
16408;DHT22;8313;49.894;8.084;2023-02-28T14:11:43;4.50;95.20
16408;DHT22;8313;49.894;8.084;2023-02-28T14:17:05;4.60;95.50
16408;DHT22;8313;49.894;8.084;2023-02-28T14:19:34;4.50;95.40
16408;DHT22;8313;49.894;8.084;2023-02-28T14:36:21;4.60;95.10
16408;DHT22;8313;49.894;8.084;2023-02-28T14:38:55;4.60;95.30
16408;DHT22;8313;49.894;8.084;2023-02-28T14:41:32;4.60;95.20
16408;DHT22;8313;49.894;8.084;2023-02-28T14:44:02;4.70;95.90
16408;DHT22;8313;49.894;8.084;2023-02-28T14:46:38;4.70;95.20
16408;DHT22;8313;49.894;8.084;2023-02-28T14:49:06;4.70;95.40
16408;DHT22;8313;49.894;8.084;2023-02-28T14:51:35;4.70;95.50
16408;DHT22;8313;49.894;8.084;2023-02-28T14:54:01;4.70;95.30
16408;DHT22;8313;49.894;8.084;2023-02-28T14:56:35;4.70;95.40
16408;DHT22;8313;49.894;8.084;2023-02-28T14:59:03;4.60;95.30
16408;DHT22;8313;49.894;8.084;2023-02-28T15:01:29;4.60;95.10
16408;DHT22;8313;49.894;8.084;2023-02-28T15:04:03;4.70;95.50
16408;DHT22;8313;49.894;8.084;2023-02-28T15:06:30;4.70;95.00
16408;DHT22;8313;49.894;8.084;2023-02-28T15:09:16;4.70;95.10
16408;DHT22;8313;49.894;8.084;2023-02-28T15:11:45;4.70;95.50
16408;DHT22;8313;49.894;8.084;2023-02-28T15:14:21;4.70;95.50
16408;DHT22;8313;49.894;8.084;2023-02-28T15:16:56;4.70;95.30
16408;DHT22;8313;49.894;8.084;2023-02-28T15:19:23;4.70;95.50
16408;DHT22;8313;49.894;8.084;2023-02-28T15:21:58;4.80;95.70
16408;DHT22;8313;49.894;8.084;2023-02-28T15:24:38;4.70;95.20
16408;DHT22;8313;49.894;8.084;2023-02-28T15:27:12;4.80;95.30
16408;DHT22;8313;49.894;8.084;2023-02-28T15:29:48;4.70;95.30
16408;DHT22;8313;49.894;8.084;2023-02-28T15:32:28;4.70;95.60
16408;DHT22;8313;49.894;8.084;2023-02-28T15:34:54;4.80;95.30
16408;DHT22;8313;49.894;8.084;2023-02-28T15:40:28;4.80;95.10
16408;DHT22;8313;49.894;8.084;2023-02-28T15:45:37;4.70;95.30
16408;DHT22;8313;49.894;8.084;2023-02-28T15:48:15;4.70;95.40
16408;DHT22;8313;49.894;8.084;2023-02-28T15:50:41;4.70;95.30
16408;DHT22;8313;49.894;8.084;2023-02-28T15:53:14;4.70;95.20
16408;DHT22;8313;49.894;8.084;2023-02-28T15:55:40;4.70;95.50
16408;DHT22;8313;49.894;8.084;2023-02-28T15:58:12;4.70;95.40
16408;DHT22;8313;49.894;8.084;2023-02-28T16:00:43;4.70;95.30
16408;DHT22;8313;49.894;8.084;2023-02-28T16:03:39;4.70;95.30
16408;DHT22;8313;49.894;8.084;2023-02-28T16:08:53;4.70;95.50
16408;DHT22;8313;49.894;8.084;2023-02-28T16:11:20;4.70;95.50
16408;DHT22;8313;49.894;8.084;2023-02-28T16:13:47;4.70;95.80
16408;DHT22;8313;49.894;8.084;2023-02-28T16:16:21;4.80;95.60
16408;DHT22;8313;49.894;8.084;2023-02-28T16:18:48;4.70;95.60
16408;DHT22;8313;49.894;8.084;2023-02-28T16:21:14;4.70;95.60
16408;DHT22;8313;49.894;8.084;2023-02-28T16:23:39;4.70;95.70
16408;DHT22;8313;49.894;8.084;2023-02-28T16:26:06;4.70;95.70
16408;DHT22;8313;49.894;8.084;2023-02-28T16:28:37;4.60;95.70
16408;DHT22;8313;49.894;8.084;2023-02-28T16:31:05;4.60;95.70
16408;DHT22;8313;49.894;8.084;2023-02-28T16:33:32;4.60;96.10
16408;DHT22;8313;49.894;8.084;2023-02-28T16:35:59;4.70;96.20
16408;DHT22;8313;49.894;8.084;2023-02-28T16:38:24;4.60;95.80
16408;DHT22;8313;49.894;8.084;2023-02-28T16:40:59;4.50;96.00
16408;DHT22;8313;49.894;8.084;2023-02-28T16:43:26;4.60;95.80
16408;DHT22;8313;49.894;8.084;2023-02-28T16:45:56;4.50;96.00
16408;DHT22;8313;49.894;8.084;2023-02-28T16:48:23;4.60;96.20
16408;DHT22;8313;49.894;8.084;2023-02-28T16:50:51;4.60;96.20
16408;DHT22;8313;49.894;8.084;2023-02-28T16:53:17;4.50;96.30
16408;DHT22;8313;49.894;8.084;2023-02-28T16:55:42;4.50;96.20
16408;DHT22;8313;49.894;8.084;2023-02-28T16:58:15;4.40;96.20
16408;DHT22;8313;49.894;8.084;2023-02-28T17:00:41;4.50;96.40
16408;DHT22;8313;49.894;8.084;2023-02-28T17:03:25;4.50;96.70
16408;DHT22;8313;49.894;8.084;2023-02-28T17:05:51;4.50;96.50
16408;DHT22;8313;49.894;8.084;2023-02-28T17:08:17;4.40;96.60
16408;DHT22;8313;49.894;8.084;2023-02-28T17:10:43;4.50;96.70
16408;DHT22;8313;49.894;8.084;2023-02-28T17:13:08;4.40;96.70
16408;DHT22;8313;49.894;8.084;2023-02-28T17:15:35;4.40;96.70
16408;DHT22;8313;49.894;8.084;2023-02-28T17:18:01;4.50;97.10
16408;DHT22;8313;49.894;8.084;2023-02-28T17:20:27;4.40;96.80
16408;DHT22;8313;49.894;8.084;2023-02-28T17:22:54;4.40;96.70
16408;DHT22;8313;49.894;8.084;2023-02-28T17:25:20;4.30;96.80
16408;DHT22;8313;49.894;8.084;2023-02-28T17:27:46;4.20;96.70
16408;DHT22;8313;49.894;8.084;2023-02-28T17:30:20;4.10;96.90
16408;DHT22;8313;49.894;8.084;2023-02-28T17:32:46;4.20;97.20
16408;DHT22;8313;49.894;8.084;2023-02-28T17:35:12;4.20;97.30
16408;DHT22;8313;49.894;8.084;2023-02-28T17:37:38;4.10;96.90
16408;DHT22;8313;49.894;8.084;2023-02-28T17:40:05;4.10;97.10
16408;DHT22;8313;49.894;8.084;2023-02-28T17:42:31;4.00;97.00
16408;DHT22;8313;49.894;8.084;2023-02-28T17:44:57;4.00;97.20
16408;DHT22;8313;49.894;8.084;2023-02-28T17:47:22;4.00;97.20
16408;DHT22;8313;49.894;8.084;2023-02-28T17:49:48;4.00;97.20
16408;DHT22;8313;49.894;8.084;2023-02-28T17:52:14;3.90;97.00
16408;DHT22;8313;49.894;8.084;2023-02-28T17:54:39;4.00;97.50
16408;DHT22;8313;49.894;8.084;2023-02-28T17:57:05;4.00;97.60
16408;DHT22;8313;49.894;8.084;2023-02-28T17:59:31;3.90;97.30
16408;DHT22;8313;49.894;8.084;2023-02-28T18:02:02;3.90;97.30
16408;DHT22;8313;49.894;8.084;2023-02-28T18:04:29;3.90;97.40
16408;DHT22;8313;49.894;8.084;2023-02-28T18:06:55;3.80;97.30
16408;DHT22;8313;49.894;8.084;2023-02-28T18:09:26;3.80;97.50
16408;DHT22;8313;49.894;8.084;2023-02-28T18:11:53;3.80;97.50
16408;DHT22;8313;49.894;8.084;2023-02-28T18:14:21;3.70;97.30
16408;DHT22;8313;49.894;8.084;2023-02-28T18:16:49;3.70;97.40
16408;DHT22;8313;49.894;8.084;2023-02-28T18:19:15;3.70;97.50
16408;DHT22;8313;49.894;8.084;2023-02-28T18:21:44;3.70;97.60
16408;DHT22;8313;49.894;8.084;2023-02-28T18:24:10;3.70;97.80
16408;DHT22;8313;49.894;8.084;2023-02-28T18:26:37;3.60;97.50
16408;DHT22;8313;49.894;8.084;2023-02-28T18:29:04;3.60;97.80
16408;DHT22;8313;49.894;8.084;2023-02-28T18:31:29;3.60;97.60
16408;DHT22;8313;49.894;8.084;2023-02-28T18:33:57;3.50;97.60
16408;DHT22;8313;49.894;8.084;2023-02-28T18:36:22;3.50;97.80
16408;DHT22;8313;49.894;8.084;2023-02-28T18:38:49;3.50;97.70
16408;DHT22;8313;49.894;8.084;2023-02-28T18:41:15;3.50;97.60
16408;DHT22;8313;49.894;8.084;2023-02-28T18:43:41;3.50;97.70
16408;DHT22;8313;49.894;8.084;2023-02-28T18:46:10;3.50;97.70
16408;DHT22;8313;49.894;8.084;2023-02-28T18:48:37;3.60;97.70
16408;DHT22;8313;49.894;8.084;2023-02-28T18:51:10;3.50;97.70
16408;DHT22;8313;49.894;8.084;2023-02-28T18:53:38;3.60;98.00
16408;DHT22;8313;49.894;8.084;2023-02-28T18:56:05;3.70;97.90
16408;DHT22;8313;49.894;8.084;2023-02-28T18:58:32;3.60;97.90
16408;DHT22;8313;49.894;8.084;2023-02-28T19:01:02;3.70;97.90
16408;DHT22;8313;49.894;8.084;2023-02-28T19:03:28;3.70;98.10
16408;DHT22;8313;49.894;8.084;2023-02-28T19:05:59;3.70;98.10
16408;DHT22;8313;49.894;8.084;2023-02-28T19:08:25;3.80;97.80
16408;DHT22;8313;49.894;8.084;2023-02-28T19:10:51;3.70;97.60
16408;DHT22;8313;49.894;8.084;2023-02-28T19:13:17;3.70;97.90